createdAt,value
2023-05-17T00:00:46.926Z,99.90
2023-05-17T00:03:15.145Z,99.90
2023-05-17T00:05:43.260Z,99.90
2023-05-17T00:08:11.386Z,99.90
2023-05-17T00:10:39.726Z,99.90
2023-05-17T00:13:07.803Z,99.90
2023-05-17T00:15:37.236Z,99.90
2023-05-17T00:18:05.584Z,99.90
2023-05-17T00:20:34.645Z,99.90
2023-05-17T00:23:03.096Z,99.90
2023-05-17T00:25:31.451Z,99.90
2023-05-17T00:27:59.670Z,99.90
2023-05-17T00:30:29.794Z,99.90
2023-05-17T00:32:59.318Z,99.90
2023-05-17T00:35:27.738Z,99.90
2023-05-17T00:37:56.329Z,99.90
2023-05-17T00:40:24.402Z,99.90
2023-05-17T00:42:52.600Z,99.90
2023-05-17T00:45:23.406Z,99.90
2023-05-17T00:47:51.641Z,99.90
2023-05-17T00:50:21.442Z,99.90
2023-05-17T00:52:51.215Z,99.90
2023-05-17T00:55:20.558Z,99.90
2023-05-17T00:57:49.071Z,99.90
2023-05-17T01:00:17.339Z,99.90
2023-05-17T01:02:48.647Z,99.90
2023-05-17T01:05:17.008Z,99.90
2023-05-17T01:07:46.373Z,99.90
2023-05-17T01:10:16.459Z,99.90
2023-05-17T01:12:56.038Z,99.90
2023-05-17T01:15:28.966Z,99.90
2023-05-17T01:18:17.403Z,99.90
2023-05-17T01:20:47.328Z,99.90
2023-05-17T01:23:38.184Z,99.90
2023-05-17T01:26:12.031Z,99.90
2023-05-17T01:28:42.724Z,99.90
2023-05-17T01:31:12.794Z,99.90
2023-05-17T01:33:41.200Z,99.90
2023-05-17T01:36:10.000Z,99.90
2023-05-17T01:38:38.115Z,99.90
2023-05-17T01:41:15.102Z,99.90
2023-05-17T01:43:50.559Z,99.90
2023-05-17T01:46:27.481Z,99.90
2023-05-17T01:49:06.418Z,99.90
2023-05-17T01:51:38.181Z,99.90
2023-05-17T01:54:12.024Z,99.90
2023-05-17T01:56:45.418Z,99.90
2023-05-17T01:59:21.370Z,99.90
2023-05-17T02:01:51.210Z,99.90
2023-05-17T02:04:20.242Z,99.90
2023-05-17T02:06:48.454Z,99.90
2023-05-17T02:09:16.502Z,99.90
2023-05-17T02:11:44.547Z,99.90
2023-05-17T02:14:13.936Z,99.90
2023-05-17T02:16:41.990Z,99.90
2023-05-17T02:19:10.105Z,99.90
2023-05-17T02:21:39.380Z,99.90
2023-05-17T02:24:07.985Z,99.90
2023-05-17T02:26:36.425Z,99.90
2023-05-17T02:29:04.598Z,99.90
2023-05-17T02:31:34.095Z,99.90
2023-05-17T02:34:02.201Z,99.90
2023-05-17T02:36:30.632Z,99.90
2023-05-17T02:38:58.723Z,99.90
2023-05-17T02:41:26.962Z,99.90
2023-05-17T02:43:54.981Z,99.90
2023-05-17T02:46:23.054Z,99.90
2023-05-17T02:48:52.498Z,99.90
2023-05-17T02:51:20.511Z,99.90
2023-05-17T02:53:48.805Z,99.90
2023-05-17T02:56:16.878Z,99.90
2023-05-17T02:58:45.082Z,99.90
2023-05-17T03:01:13.171Z,99.90
2023-05-17T03:03:41.396Z,99.90
2023-05-17T03:06:11.514Z,99.90
2023-05-17T03:08:39.706Z,99.90
2023-05-17T03:11:09.339Z,99.90
2023-05-17T03:13:37.566Z,99.90
2023-05-17T03:16:06.585Z,99.90
2023-05-17T03:18:35.970Z,99.90
2023-05-17T03:21:04.102Z,99.90
2023-05-17T03:23:34.597Z,99.90
2023-05-17T03:26:04.354Z,99.90
2023-05-17T03:28:37.763Z,99.90
2023-05-17T03:31:06.376Z,99.90
2023-05-17T03:33:36.041Z,99.90
2023-05-17T03:36:05.105Z,99.90
2023-05-17T03:38:36.031Z,99.90
2023-05-17T03:41:04.807Z,99.90
2023-05-17T03:43:33.567Z,99.90
2023-05-17T03:46:02.525Z,99.90
2023-05-17T03:48:33.112Z,99.90
2023-05-17T03:51:03.449Z,99.90
2023-05-17T03:53:31.629Z,99.90
2023-05-17T03:56:01.298Z,99.90
2023-05-17T03:58:29.986Z,99.90
2023-05-17T04:00:58.135Z,99.90
2023-05-17T04:03:27.046Z,99.90
2023-05-17T04:05:55.738Z,99.90
2023-05-17T04:08:23.849Z,99.90
2023-05-17T04:10:51.926Z,99.90
2023-05-17T04:13:21.362Z,99.90
2023-05-17T04:15:49.684Z,99.90
2023-05-17T04:18:18.550Z,99.90
2023-05-17T04:20:46.727Z,99.90
2023-05-17T04:23:15.506Z,99.90
2023-05-17T04:25:44.648Z,99.90
2023-05-17T04:28:12.690Z,99.90
2023-05-17T04:30:45.121Z,99.90
2023-05-17T04:33:14.329Z,99.90
2023-05-17T04:35:43.538Z,99.90
2023-05-17T04:38:12.329Z,99.90
2023-05-17T04:40:40.755Z,99.90
2023-05-17T04:43:09.191Z,99.90
2023-05-17T04:45:39.198Z,99.90
2023-05-17T04:48:08.970Z,99.90
2023-05-17T04:50:37.267Z,99.90
2023-05-17T04:53:05.886Z,99.90
2023-05-17T04:55:37.052Z,99.90
2023-05-17T04:58:05.951Z,99.90
2023-05-17T05:00:34.792Z,99.90
2023-05-17T05:03:06.040Z,99.90
2023-05-17T05:05:37.112Z,99.90
2023-05-17T05:08:05.787Z,99.90
2023-05-17T05:10:34.497Z,99.90
2023-05-17T05:13:02.812Z,99.90
2023-05-17T05:15:32.824Z,99.90
2023-05-17T05:18:01.717Z,99.90
2023-05-17T05:20:33.294Z,99.90
2023-05-17T05:23:05.973Z,99.90
2023-05-17T05:25:35.383Z,99.90
2023-05-17T05:28:03.582Z,99.90
2023-05-17T05:30:33.581Z,99.90
2023-05-17T05:33:02.153Z,99.90
2023-05-17T05:35:30.795Z,99.90
2023-05-17T05:38:00.576Z,99.90
2023-05-17T05:40:30.390Z,99.90
2023-05-17T05:42:58.670Z,99.90
2023-05-17T05:45:26.846Z,99.90
2023-05-17T05:47:58.558Z,99.90
2023-05-17T05:50:27.110Z,99.90
2023-05-17T05:53:14.458Z,99.90
2023-05-17T05:55:50.537Z,99.90
2023-05-17T05:58:19.242Z,99.90
2023-05-17T06:00:48.272Z,99.90
2023-05-17T06:03:16.462Z,99.90
2023-05-17T06:05:44.600Z,99.90
2023-05-17T06:08:12.764Z,99.90
2023-05-17T06:10:40.888Z,99.90
2023-05-17T06:13:10.282Z,99.90
2023-05-17T06:15:38.384Z,99.90
2023-05-17T06:18:06.805Z,99.90
2023-05-17T06:20:35.119Z,99.90
2023-05-17T06:23:05.063Z,99.90
2023-05-17T06:25:33.198Z,99.90
2023-05-17T06:28:02.765Z,99.90
2023-05-17T06:30:32.646Z,99.90
2023-05-17T06:33:01.109Z,99.90
2023-05-17T06:35:32.974Z,99.90
2023-05-17T06:38:05.998Z,99.90
2023-05-17T06:40:34.409Z,99.90
2023-05-17T06:43:02.668Z,99.90
2023-05-17T06:45:32.214Z,99.90
2023-05-17T06:48:00.443Z,99.90
2023-05-17T06:50:29.258Z,99.90
2023-05-17T06:52:57.595Z,99.90
2023-05-17T06:55:25.701Z,99.90
2023-05-17T06:57:53.828Z,99.90
2023-05-17T07:00:22.148Z,99.90
2023-05-17T07:02:51.915Z,99.90
2023-05-17T07:05:20.220Z,99.90
2023-05-17T07:07:48.350Z,99.90
2023-05-17T07:10:16.591Z,99.90
2023-05-17T07:12:44.639Z,99.90
2023-05-17T07:15:13.179Z,99.90
2023-05-17T07:17:41.656Z,99.90
2023-05-17T07:20:13.492Z,99.90
2023-05-17T07:22:41.945Z,99.90
2023-05-17T07:25:11.216Z,99.90
2023-05-17T07:27:39.296Z,99.90
2023-05-17T07:30:08.751Z,99.90
2023-05-17T07:32:36.841Z,99.90
2023-05-17T07:35:05.225Z,99.90
2023-05-17T07:37:34.702Z,99.90
2023-05-17T07:40:06.662Z,99.90
2023-05-17T07:42:34.842Z,99.90
2023-05-17T07:45:02.919Z,99.90
2023-05-17T07:47:31.119Z,99.90
2023-05-17T07:49:59.454Z,99.80
2023-05-17T07:52:27.571Z,99.70
2023-05-17T07:54:57.032Z,99.60
2023-05-17T07:57:25.517Z,99.40
2023-05-17T07:59:53.639Z,99.10
2023-05-17T08:02:21.745Z,99.10
2023-05-17T08:04:50.106Z,99.10
2023-05-17T08:07:18.405Z,99.00
2023-05-17T08:09:46.545Z,98.90
2023-05-17T08:12:16.251Z,98.70
2023-05-17T08:14:44.398Z,98.80
2023-05-17T08:17:12.473Z,98.90
2023-05-17T08:19:40.720Z,99.00
2023-05-17T08:22:09.450Z,99.30
2023-05-17T08:24:37.532Z,99.20
2023-05-17T08:27:06.287Z,99.40
2023-05-17T08:29:37.590Z,99.20
2023-05-17T08:32:07.731Z,99.10
2023-05-17T08:34:36.621Z,99.00
2023-05-17T08:37:05.122Z,98.90
2023-05-17T08:39:33.743Z,98.70
2023-05-17T08:42:02.568Z,98.80
2023-05-17T08:44:30.769Z,98.80
2023-05-17T08:47:02.133Z,98.80
2023-05-17T08:49:33.204Z,98.50
2023-05-17T08:52:03.337Z,98.20
2023-05-17T08:54:31.480Z,98.10
2023-05-17T08:57:02.226Z,97.80
2023-05-17T08:59:33.935Z,97.50
2023-05-17T09:02:04.445Z,97.20
2023-05-17T09:04:33.038Z,97.10
2023-05-17T09:07:01.189Z,97.00
2023-05-17T09:09:29.678Z,96.90
2023-05-17T09:11:58.300Z,97.00
2023-05-17T09:14:26.448Z,97.10
2023-05-17T09:16:58.380Z,97.10
2023-05-17T09:19:27.986Z,96.90
2023-05-17T09:21:56.921Z,96.90
2023-05-17T09:24:30.158Z,96.90
2023-05-17T09:27:03.438Z,96.80
2023-05-17T09:29:33.429Z,96.90
2023-05-17T09:32:14.833Z,97.00
2023-05-17T09:34:46.914Z,97.20
2023-05-17T09:37:16.323Z,97.10
2023-05-17T09:39:46.085Z,97.10
2023-05-17T09:42:14.986Z,97.10
2023-05-17T09:44:51.016Z,97.00
2023-05-17T09:47:30.147Z,96.90
2023-05-17T09:50:03.607Z,97.10
2023-05-17T09:52:32.558Z,96.90
2023-05-17T09:55:01.554Z,96.80
2023-05-17T09:57:37.781Z,96.80
2023-05-17T10:00:09.551Z,96.70
2023-05-17T10:02:38.972Z,96.70
2023-05-17T10:05:11.935Z,96.70
2023-05-17T10:07:42.103Z,96.60
2023-05-17T10:10:11.124Z,96.70
2023-05-17T10:12:41.824Z,96.80
2023-05-17T10:15:12.269Z,96.80
2023-05-17T10:17:44.598Z,96.90
2023-05-17T10:20:17.644Z,96.90
2023-05-17T10:22:46.323Z,96.80
2023-05-17T10:25:15.319Z,96.80
2023-05-17T10:27:43.635Z,96.90
2023-05-17T10:30:14.568Z,97.10
2023-05-17T10:32:43.787Z,97.30
2023-05-17T10:35:15.655Z,97.50
2023-05-17T10:37:43.871Z,97.70
2023-05-17T10:40:14.373Z,98.00
2023-05-17T10:42:44.580Z,97.90
2023-05-17T10:45:14.670Z,97.90
2023-05-17T10:47:43.679Z,98.30
2023-05-17T10:50:14.987Z,98.10
2023-05-17T10:52:48.887Z,98.20
2023-05-17T10:55:20.843Z,98.20
2023-05-17T10:58:14.552Z,98.10
2023-05-17T11:00:44.096Z,97.60
2023-05-17T11:03:15.294Z,97.50
2023-05-17T11:05:46.059Z,97.50
2023-05-17T11:08:16.989Z,97.60
2023-05-17T11:11:09.149Z,97.50
2023-05-17T11:13:51.989Z,97.50
2023-05-17T11:16:23.689Z,97.50
2023-05-17T11:18:52.779Z,97.50
2023-05-17T11:21:23.556Z,97.50
2023-05-17T11:24:02.080Z,97.70
2023-05-17T11:26:34.672Z,97.80
2023-05-17T11:29:06.025Z,97.50
2023-05-17T11:31:36.436Z,97.40
2023-05-17T11:34:05.361Z,97.30
2023-05-17T11:36:51.114Z,97.20
2023-05-17T11:39:22.290Z,96.80
2023-05-17T11:41:51.668Z,96.40
2023-05-17T11:44:26.128Z,96.20
2023-05-17T11:47:03.023Z,95.90
2023-05-17T11:49:35.768Z,95.70
2023-05-17T11:52:07.015Z,95.60
2023-05-17T11:54:35.605Z,95.50
2023-05-17T11:57:04.696Z,95.60
2023-05-17T11:59:39.787Z,95.30
2023-05-17T12:02:08.435Z,94.80
2023-05-17T12:04:38.485Z,94.70
2023-05-17T12:07:10.517Z,94.70
2023-05-17T12:09:40.430Z,94.50
2023-05-17T12:12:09.663Z,94.60
2023-05-17T12:14:38.362Z,94.70
2023-05-17T12:17:09.695Z,94.70
2023-05-17T12:19:38.237Z,94.90
2023-05-17T12:22:12.519Z,95.00
2023-05-17T12:24:42.300Z,95.10
2023-05-17T12:27:11.167Z,95.20
2023-05-17T12:29:40.219Z,95.60
2023-05-17T12:32:10.315Z,95.50
2023-05-17T12:34:38.695Z,95.70
2023-05-17T12:37:10.492Z,95.80
2023-05-17T12:39:40.874Z,95.90
2023-05-17T12:42:10.627Z,95.80
2023-05-17T12:44:38.985Z,95.90
2023-05-17T12:47:07.493Z,95.80
2023-05-17T12:49:40.224Z,95.90
2023-05-17T12:52:08.805Z,96.00
2023-05-17T12:54:36.864Z,96.10
2023-05-17T12:57:13.964Z,96.20
2023-05-17T12:59:49.726Z,96.30
2023-05-17T13:02:18.353Z,96.30
2023-05-17T13:04:46.810Z,96.30
2023-05-17T13:07:22.806Z,96.30
2023-05-17T13:09:50.903Z,96.10
2023-05-17T13:12:24.777Z,96.00
2023-05-17T13:14:54.660Z,95.90
2023-05-17T13:17:26.992Z,95.90
2023-05-17T13:19:57.410Z,95.90
2023-05-17T13:22:26.221Z,95.90
2023-05-17T13:24:54.844Z,95.80
2023-05-17T13:27:24.297Z,95.90
2023-05-17T13:29:52.536Z,95.70
2023-05-17T13:32:21.978Z,95.60
2023-05-17T13:34:50.522Z,95.70
2023-05-17T13:37:18.740Z,95.90
2023-05-17T13:39:46.881Z,96.00
2023-05-17T13:42:15.229Z,95.90
2023-05-17T13:44:44.655Z,95.80
2023-05-17T13:47:12.732Z,95.70
2023-05-17T13:49:41.225Z,95.40
2023-05-17T13:52:09.469Z,95.40
2023-05-17T13:54:39.088Z,95.10
2023-05-17T13:57:07.735Z,94.80
2023-05-17T13:59:36.020Z,94.50
2023-05-17T14:02:05.783Z,94.30
2023-05-17T14:04:34.912Z,94.10
2023-05-17T14:07:03.593Z,93.90
2023-05-17T14:09:33.789Z,93.70
2023-05-17T14:12:01.978Z,93.50
2023-05-17T14:14:31.855Z,93.60
2023-05-17T14:17:01.389Z,93.70
2023-05-17T14:19:31.064Z,93.90
2023-05-17T14:21:59.291Z,93.90
2023-05-17T14:24:27.560Z,93.80
2023-05-17T14:26:56.265Z,93.60
2023-05-17T14:29:24.597Z,93.60
2023-05-17T14:31:52.856Z,93.60
2023-05-17T14:34:21.320Z,93.70
2023-05-17T14:36:51.647Z,93.70
2023-05-17T14:39:19.731Z,93.90
2023-05-17T14:41:47.930Z,93.90
2023-05-17T14:44:16.329Z,94.00
2023-05-17T14:46:44.364Z,94.10
2023-05-17T14:49:12.633Z,94.20
2023-05-17T14:51:42.289Z,94.30
2023-05-17T14:54:13.539Z,94.50
2023-05-17T14:56:42.308Z,94.60
2023-05-17T14:59:10.445Z,94.50
2023-05-17T15:01:38.626Z,94.30
2023-05-17T15:04:07.180Z,94.30
2023-05-17T15:06:35.305Z,94.30
2023-05-17T15:09:04.078Z,94.40
2023-05-17T15:11:33.711Z,94.50
2023-05-17T15:14:02.235Z,94.60
2023-05-17T15:16:30.344Z,94.80
2023-05-17T15:18:59.154Z,94.80
2023-05-17T15:21:27.643Z,94.80
2023-05-17T15:23:55.932Z,94.90
2023-05-17T15:26:24.226Z,95.00
2023-05-17T15:28:53.692Z,95.20
2023-05-17T15:31:23.864Z,95.20
2023-05-17T15:33:52.213Z,95.20
2023-05-17T15:36:20.328Z,95.20
2023-05-17T15:38:48.424Z,95.20
2023-05-17T15:41:17.780Z,95.20
2023-05-17T15:43:46.084Z,95.20
2023-05-17T15:46:15.613Z,95.20
2023-05-17T15:48:43.807Z,95.40
2023-05-17T15:51:11.921Z,95.40
2023-05-17T15:53:40.153Z,95.40
2023-05-17T15:56:10.044Z,95.40
2023-05-17T15:58:38.168Z,95.40
2023-05-17T16:01:07.034Z,95.50
2023-05-17T16:03:36.774Z,95.20
2023-05-17T16:06:05.636Z,95.30
2023-05-17T16:08:33.938Z,95.40
2023-05-17T16:11:02.696Z,95.50
2023-05-17T16:13:31.040Z,95.60
2023-05-17T16:16:00.244Z,95.70
2023-05-17T16:18:29.223Z,95.70
2023-05-17T16:21:04.913Z,95.70
2023-05-17T16:23:33.054Z,95.80
2023-05-17T16:26:01.446Z,95.80
2023-05-17T16:28:31.682Z,95.90
2023-05-17T16:30:59.765Z,96.00
2023-05-17T16:33:28.000Z,96.00
2023-05-17T16:35:56.243Z,96.00
2023-05-17T16:38:26.177Z,96.00
2023-05-17T16:40:54.250Z,96.00
2023-05-17T16:43:22.291Z,96.00
2023-05-17T16:45:52.265Z,95.90
2023-05-17T16:48:20.394Z,95.90
2023-05-17T16:50:49.599Z,96.00
2023-05-17T16:53:17.759Z,96.10
2023-05-17T16:55:47.247Z,96.00
2023-05-17T16:58:15.325Z,95.80
2023-05-17T17:00:43.406Z,95.80
2023-05-17T17:03:12.458Z,95.70
2023-05-17T17:05:40.663Z,95.70
2023-05-17T17:08:08.732Z,95.60
2023-05-17T17:10:36.912Z,95.60
2023-05-17T17:13:06.322Z,95.50
2023-05-17T17:15:34.378Z,95.40
2023-05-17T17:18:02.656Z,95.40
2023-05-17T17:20:31.221Z,95.50
2023-05-17T17:22:59.436Z,95.50
2023-05-17T17:25:28.041Z,95.40
2023-05-17T17:27:56.228Z,95.40
2023-05-17T17:30:25.672Z,95.40
2023-05-17T17:32:53.888Z,95.50
2023-05-17T17:35:22.168Z,95.40
2023-05-17T17:37:50.453Z,95.40
2023-05-17T17:40:18.715Z,95.30
2023-05-17T17:42:47.145Z,95.30
2023-05-17T17:45:15.272Z,95.20
2023-05-17T17:47:44.937Z,95.20
2023-05-17T17:50:13.043Z,95.30
2023-05-17T17:52:41.164Z,95.30
2023-05-17T17:55:12.949Z,95.20
2023-05-17T17:57:41.682Z,95.20
2023-05-17T18:00:11.997Z,95.20
2023-05-17T18:02:41.142Z,95.10
2023-05-17T18:05:11.595Z,95.10
2023-05-17T18:07:39.876Z,95.00
2023-05-17T18:10:08.980Z,95.00
2023-05-17T18:12:37.354Z,95.10
2023-05-17T18:15:06.184Z,95.00
2023-05-17T18:17:34.472Z,94.90
2023-05-17T18:20:02.657Z,94.90
2023-05-17T18:22:32.218Z,94.90
2023-05-17T18:25:00.403Z,95.00
2023-05-17T18:27:28.433Z,94.90
2023-05-17T18:29:56.574Z,94.80
2023-05-17T18:32:24.823Z,94.60
2023-05-17T18:34:53.132Z,94.50
2023-05-17T18:37:21.202Z,94.50
2023-05-17T18:39:50.714Z,94.40
2023-05-17T18:42:19.497Z,94.40
2023-05-17T18:44:48.172Z,94.40
2023-05-17T18:47:16.387Z,94.40
2023-05-17T18:49:46.509Z,94.40
2023-05-17T18:52:14.854Z,94.40
2023-05-17T18:54:42.895Z,94.40
2023-05-17T18:57:14.041Z,94.40
2023-05-17T18:59:42.174Z,94.40
2023-05-17T19:02:10.337Z,94.40
2023-05-17T19:04:38.526Z,94.50
2023-05-17T19:07:06.673Z,94.50
2023-05-17T19:09:34.797Z,94.80
2023-05-17T19:12:03.031Z,94.60
2023-05-17T19:14:32.922Z,94.60
2023-05-17T19:17:01.057Z,94.70
2023-05-17T19:19:31.099Z,94.70
2023-05-17T19:22:00.568Z,94.80
2023-05-17T19:24:29.214Z,94.90
2023-05-17T19:26:57.318Z,95.00
2023-05-17T19:29:27.154Z,95.00
2023-05-17T19:31:56.614Z,95.00
2023-05-17T19:34:24.721Z,95.10
2023-05-17T19:36:52.849Z,95.20
2023-05-17T19:39:21.331Z,95.20
2023-05-17T19:41:49.523Z,95.30
2023-05-17T19:44:17.585Z,95.40
2023-05-17T19:46:45.834Z,95.30
2023-05-17T19:49:15.452Z,95.30
2023-05-17T19:51:43.762Z,95.30
2023-05-17T19:54:11.886Z,95.30
2023-05-17T19:56:39.960Z,95.40
2023-05-17T19:59:07.980Z,95.40
2023-05-17T20:01:36.178Z,95.50
2023-05-17T20:04:04.318Z,95.50
2023-05-17T20:06:33.864Z,95.60
2023-05-17T20:09:01.978Z,95.60
2023-05-17T20:11:30.163Z,95.60
2023-05-17T20:13:58.356Z,95.70
2023-05-17T20:16:28.065Z,95.70
2023-05-17T20:18:57.995Z,95.80
2023-05-17T20:21:26.526Z,95.90
2023-05-17T20:24:01.514Z,95.90
2023-05-17T20:26:32.050Z,96.00
2023-05-17T20:29:00.259Z,96.00
2023-05-17T20:31:29.056Z,96.10
2023-05-17T20:33:57.145Z,96.10
2023-05-17T20:36:25.538Z,96.20
2023-05-17T20:38:55.406Z,96.10
2023-05-17T20:41:23.628Z,96.10
2023-05-17T20:43:51.833Z,96.10
2023-05-17T20:46:20.177Z,96.20
2023-05-17T20:48:49.873Z,96.20
2023-05-17T20:51:19.598Z,96.20
2023-05-17T20:53:47.839Z,96.00
2023-05-17T20:56:19.154Z,96.00
2023-05-17T20:58:47.498Z,95.90
2023-05-17T21:01:15.790Z,95.80
2023-05-17T21:03:44.430Z,95.80
2023-05-17T21:06:13.030Z,95.80
2023-05-17T21:08:42.782Z,95.70
2023-05-17T21:11:10.894Z,95.70
2023-05-17T21:13:40.302Z,95.50
2023-05-17T21:16:08.728Z,95.40
2023-05-17T21:18:36.862Z,95.40
2023-05-17T21:21:05.045Z,95.30
2023-05-17T21:23:33.244Z,95.20
2023-05-17T21:26:01.518Z,95.20
2023-05-17T21:28:30.622Z,95.20
2023-05-17T21:31:00.142Z,95.20
2023-05-17T21:33:29.284Z,95.20
2023-05-17T21:35:57.416Z,95.50
2023-05-17T21:38:25.557Z,95.70
2023-05-17T21:40:55.445Z,95.70
2023-05-17T21:43:23.593Z,95.70
2023-05-17T21:45:51.875Z,95.60
2023-05-17T21:48:21.340Z,95.70
2023-05-17T21:50:49.821Z,95.70
2023-05-17T21:53:18.019Z,95.70
2023-05-17T21:56:01.169Z,95.70
2023-05-17T21:58:31.528Z,95.80
2023-05-17T22:00:59.700Z,95.80
2023-05-17T22:03:29.213Z,95.80
2023-05-17T22:05:57.423Z,95.80
2023-05-17T22:08:25.532Z,95.90
2023-05-17T22:10:55.663Z,95.80
2023-05-17T22:13:26.213Z,95.80
2023-05-17T22:15:57.083Z,95.80
2023-05-17T22:18:26.941Z,95.80
2023-05-17T22:20:59.079Z,95.80
2023-05-17T22:23:27.412Z,95.80
2023-05-17T22:26:01.600Z,95.80
2023-05-17T22:28:36.043Z,95.80
2023-05-17T22:31:07.297Z,95.80
2023-05-17T22:33:38.235Z,95.90
2023-05-17T22:36:13.783Z,95.90
2023-05-17T22:38:43.535Z,95.90
2023-05-17T22:41:17.409Z,95.90
2023-05-17T22:43:55.426Z,96.00
2023-05-17T22:46:27.945Z,96.00
2023-05-17T22:49:01.846Z,96.10
2023-05-17T22:51:35.284Z,96.10
2023-05-17T22:54:08.405Z,96.20
2023-05-17T22:56:49.273Z,96.20
2023-05-17T22:59:20.153Z,96.20
2023-05-17T23:01:51.647Z,96.20
2023-05-17T23:04:19.876Z,96.20
2023-05-17T23:07:10.428Z,96.20
2023-05-17T23:09:41.410Z,96.20
2023-05-17T23:12:14.641Z,96.20
2023-05-17T23:14:43.537Z,96.30
2023-05-17T23:17:11.583Z,96.40
2023-05-17T23:19:40.683Z,96.40
2023-05-17T23:22:10.737Z,96.50
2023-05-17T23:24:39.723Z,96.60
2023-05-17T23:27:09.963Z,96.70
2023-05-17T23:29:41.435Z,96.70
2023-05-17T23:32:09.852Z,96.70
2023-05-17T23:34:38.920Z,96.80
2023-05-17T23:37:07.240Z,96.80
2023-05-17T23:39:36.929Z,96.90
2023-05-17T23:42:05.871Z,96.90
2023-05-17T23:44:36.468Z,96.90
2023-05-17T23:47:06.850Z,96.90
2023-05-17T23:49:36.708Z,97.00
2023-05-17T23:52:09.708Z,97.00
2023-05-17T23:54:41.648Z,97.00
2023-05-17T23:57:11.480Z,97.10
2023-05-17T23:59:47.638Z,97.10
